createdAt,value
2018-09-25T00:00:55.196Z,5.50
2018-09-25T00:03:29.496Z,5.50
2018-09-25T00:06:04.040Z,5.50
2018-09-25T00:08:38.368Z,5.50
2018-09-25T00:11:12.936Z,5.40
2018-09-25T00:13:47.210Z,5.30
2018-09-25T00:16:21.556Z,5.30
2018-09-25T00:18:56.004Z,5.30
2018-09-25T00:21:30.776Z,5.20
2018-09-25T00:24:05.329Z,5.20
2018-09-25T00:26:39.728Z,5.20
2018-09-25T00:29:14.145Z,5.20
2018-09-25T00:31:48.585Z,5.10
2018-09-25T00:34:23.013Z,5.10
2018-09-25T00:36:57.535Z,5.00
2018-09-25T00:39:31.866Z,5.00
2018-09-25T00:42:06.240Z,5.00
2018-09-25T00:44:40.593Z,5.00
2018-09-25T00:47:15.009Z,4.90
2018-09-25T00:49:49.284Z,4.90
2018-09-25T00:52:23.672Z,4.80
2018-09-25T00:54:57.964Z,4.90
2018-09-25T00:57:32.347Z,4.80
2018-09-25T01:00:06.676Z,4.70
2018-09-25T01:02:41.102Z,4.70
2018-09-25T01:05:15.465Z,4.70
2018-09-25T01:07:49.734Z,4.70
2018-09-25T01:10:24.032Z,4.70
2018-09-25T01:12:58.393Z,4.70
2018-09-25T01:15:32.760Z,4.70
2018-09-25T01:18:07.068Z,4.70
2018-09-25T01:20:41.392Z,4.70
2018-09-25T01:23:15.912Z,4.60
2018-09-25T01:25:51.212Z,4.60
2018-09-25T01:28:25.776Z,4.50
2018-09-25T01:31:00.062Z,4.50
2018-09-25T01:33:34.476Z,4.50
2018-09-25T01:36:08.760Z,4.50
2018-09-25T01:38:43.072Z,4.40
2018-09-25T01:41:17.428Z,4.40
2018-09-25T01:43:51.796Z,4.40
2018-09-25T01:46:26.060Z,4.30
2018-09-25T01:49:00.388Z,4.30
2018-09-25T01:51:34.644Z,4.20
2018-09-25T01:54:09.157Z,4.20
2018-09-25T01:56:43.471Z,4.10
2018-09-25T01:59:17.760Z,4.10
2018-09-25T02:01:52.039Z,4.00
2018-09-25T02:04:26.333Z,3.90
2018-09-25T02:07:00.835Z,3.90
2018-09-25T02:09:35.201Z,3.90
2018-09-25T02:12:09.556Z,4.00
2018-09-25T02:14:43.993Z,4.00
2018-09-25T02:17:18.220Z,4.00
2018-09-25T02:19:52.744Z,4.00
2018-09-25T02:22:27.080Z,4.00
2018-09-25T02:25:01.483Z,4.00
2018-09-25T02:27:35.813Z,4.00
2018-09-25T02:30:11.661Z,3.90
2018-09-25T02:32:45.956Z,3.90
2018-09-25T02:35:20.504Z,3.90
2018-09-25T02:37:54.816Z,3.90
2018-09-25T02:40:29.243Z,3.80
2018-09-25T02:43:03.580Z,3.80
2018-09-25T02:45:37.968Z,3.80
2018-09-25T02:48:12.460Z,3.80
2018-09-25T02:50:47.021Z,3.70
2018-09-25T02:53:21.308Z,3.70
2018-09-25T02:55:55.660Z,3.70
2018-09-25T02:58:29.952Z,3.70
2018-09-25T03:01:04.460Z,3.60
2018-09-25T03:03:38.821Z,3.60
2018-09-25T03:06:13.610Z,3.50
2018-09-25T03:08:47.976Z,3.60
2018-09-25T03:11:22.343Z,3.60
2018-09-25T03:13:56.705Z,3.60
2018-09-25T03:16:32.161Z,3.60
2018-09-25T03:19:06.396Z,3.60
2018-09-25T03:21:40.985Z,3.50
2018-09-25T03:24:15.180Z,3.50
2018-09-25T03:26:49.520Z,3.50
2018-09-25T03:29:23.853Z,3.40
2018-09-25T03:31:58.468Z,3.20
2018-09-25T03:34:32.904Z,3.20
2018-09-25T03:37:08.021Z,3.30
2018-09-25T03:39:42.393Z,3.30
2018-09-25T03:42:16.772Z,3.30
2018-09-25T03:44:51.590Z,3.20
2018-09-25T03:47:25.828Z,3.30
2018-09-25T03:50:00.141Z,3.30
2018-09-25T03:52:34.649Z,3.30
2018-09-25T03:55:09.073Z,3.30
2018-09-25T03:57:43.496Z,3.20
2018-09-25T04:00:17.804Z,3.10
2018-09-25T04:02:52.180Z,3.10
2018-09-25T04:05:26.469Z,3.00
2018-09-25T04:08:01.231Z,3.00
2018-09-25T04:10:35.552Z,3.00
2018-09-25T04:13:09.904Z,3.00
2018-09-25T04:15:44.216Z,3.00
2018-09-25T04:18:18.711Z,3.00
2018-09-25T04:20:53.012Z,3.00
2018-09-25T04:23:27.436Z,3.00
2018-09-25T04:26:01.660Z,2.90
2018-09-25T04:28:36.092Z,2.90
2018-09-25T04:31:10.332Z,2.90
2018-09-25T04:33:44.852Z,2.90
2018-09-25T04:36:19.228Z,2.90
2018-09-25T04:38:53.975Z,2.90
2018-09-25T04:41:28.312Z,2.90
2018-09-25T04:44:02.795Z,2.90
2018-09-25T04:46:37.136Z,2.80
2018-09-25T04:49:11.608Z,2.80
2018-09-25T04:51:45.943Z,2.80
2018-09-25T04:54:20.228Z,2.80
2018-09-25T04:56:54.515Z,2.70
2018-09-25T04:59:28.959Z,2.70
2018-09-25T05:02:03.193Z,2.70
2018-09-25T05:04:37.688Z,2.70
2018-09-25T05:07:12.316Z,2.70
2018-09-25T05:09:46.773Z,2.60
2018-09-25T05:12:21.140Z,2.60
2018-09-25T05:14:55.532Z,2.60
2018-09-25T05:17:29.872Z,2.50
2018-09-25T05:20:04.259Z,2.50
2018-09-25T05:22:38.807Z,2.50
2018-09-25T05:25:13.078Z,2.50
2018-09-25T05:27:47.520Z,2.50
2018-09-25T05:30:21.848Z,2.50
2018-09-25T05:32:56.280Z,2.50
2018-09-25T05:35:30.652Z,2.50
2018-09-25T05:38:05.180Z,2.60
2018-09-25T05:40:39.496Z,2.60
2018-09-25T05:43:13.885Z,2.60
2018-09-25T05:45:48.375Z,2.60
2018-09-25T05:48:22.862Z,2.70
2018-09-25T05:50:57.205Z,2.80
2018-09-25T05:53:31.701Z,2.80
2018-09-25T05:56:06.368Z,2.80
2018-09-25T05:58:40.774Z,2.90
2018-09-25T06:01:15.096Z,2.90
2018-09-25T06:03:49.380Z,3.10
2018-09-25T06:06:23.785Z,3.10
2018-09-25T06:08:58.142Z,3.30
2018-09-25T06:11:32.684Z,3.60
2018-09-25T06:14:07.031Z,3.90
2018-09-25T06:16:41.611Z,4.00
2018-09-25T06:19:16.076Z,4.00
2018-09-25T06:21:50.688Z,4.20
2018-09-25T06:24:25.313Z,4.40
2018-09-25T06:26:59.784Z,4.50
2018-09-25T06:29:34.220Z,4.70
2018-09-25T06:32:08.777Z,4.80
2018-09-25T06:34:43.147Z,5.10
2018-09-25T06:37:17.948Z,5.60
2018-09-25T06:39:52.265Z,6.90
2018-09-25T06:42:26.635Z,8.40
2018-09-25T06:45:01.050Z,10.40
2018-09-25T06:47:35.576Z,12.10
2018-09-25T06:50:10.097Z,13.40
2018-09-25T06:52:44.680Z,14.90
2018-09-25T06:55:19.034Z,15.80
2018-09-25T06:57:53.404Z,16.70
2018-09-25T07:00:27.708Z,18.20
2018-09-25T07:03:02.451Z,19.20
2018-09-25T07:05:36.896Z,19.80
2018-09-25T07:08:11.310Z,19.80
2018-09-25T07:10:45.717Z,16.60
2018-09-25T07:13:19.932Z,14.20
2018-09-25T07:15:54.301Z,15.80
2018-09-25T07:18:28.777Z,17.60
2018-09-25T07:21:03.248Z,19.80
2018-09-25T07:23:37.501Z,21.40
2018-09-25T07:26:12.240Z,21.00
2018-09-25T07:28:46.559Z,22.20
2018-09-25T07:31:21.464Z,22.50
2018-09-25T07:33:55.967Z,23.20
2018-09-25T07:36:30.348Z,21.00
2018-09-25T07:39:04.695Z,18.60
2018-09-25T07:41:39.272Z,20.50
2018-09-25T07:44:13.610Z,22.50
2018-09-25T07:46:48.524Z,20.30
2018-09-25T07:49:22.868Z,19.50
2018-09-25T07:51:57.428Z,17.50
2018-09-25T07:54:31.763Z,15.80
2018-09-25T07:57:06.156Z,15.50
2018-09-25T07:59:41.141Z,16.30
2018-09-25T08:02:15.604Z,14.20
2018-09-25T08:04:49.963Z,12.90
2018-09-25T08:07:24.406Z,14.20
2018-09-25T08:09:58.760Z,16.50
2018-09-25T08:12:33.020Z,17.30
2018-09-25T08:15:07.344Z,19.40
2018-09-25T08:17:41.852Z,18.50
2018-09-25T08:20:16.206Z,18.40
2018-09-25T08:22:50.676Z,18.30
2018-09-25T08:25:25.008Z,14.60
2018-09-25T08:27:59.797Z,13.60
2018-09-25T08:30:34.197Z,14.50
2018-09-25T08:33:08.628Z,14.40
2018-09-25T08:35:42.924Z,15.00
2018-09-25T08:38:17.525Z,13.90
2018-09-25T08:40:51.837Z,13.20
2018-09-25T08:43:26.486Z,13.90
2018-09-25T08:46:00.801Z,13.20
2018-09-25T08:48:35.381Z,14.10
2018-09-25T08:51:09.968Z,14.50
2018-09-25T08:53:44.620Z,13.70
2018-09-25T08:56:19.125Z,13.60
2018-09-25T08:58:53.524Z,13.00
2018-09-25T09:01:27.860Z,13.20
2018-09-25T09:04:02.424Z,13.80
2018-09-25T09:06:36.987Z,13.90
2018-09-25T09:09:15.036Z,13.50
2018-09-25T09:11:49.569Z,14.40
2018-09-25T09:14:23.857Z,14.40
2018-09-25T09:16:58.057Z,15.60
2018-09-25T09:19:32.778Z,15.80
2018-09-25T09:22:07.044Z,16.50
2018-09-25T09:24:41.404Z,15.80
2018-09-25T09:27:15.936Z,15.90
2018-09-25T09:29:50.376Z,15.70
2018-09-25T09:32:24.692Z,17.30
2018-09-25T09:34:59.504Z,16.50
2018-09-25T09:37:33.921Z,16.40
2018-09-25T09:40:08.188Z,17.00
2018-09-25T09:42:42.788Z,17.90
2018-09-25T09:45:17.485Z,19.70
2018-09-25T09:47:52.005Z,20.20
2018-09-25T09:50:26.367Z,19.50
2018-09-25T09:53:00.664Z,19.40
2018-09-25T09:55:35.212Z,19.10
2018-09-25T09:58:09.749Z,17.50
2018-09-25T10:00:44.364Z,17.80
2018-09-25T10:03:18.693Z,17.40
2018-09-25T10:05:53.112Z,16.70
2018-09-25T10:08:28.193Z,17.00
2018-09-25T10:11:02.723Z,18.60
2018-09-25T10:13:37.184Z,18.70
2018-09-25T10:16:11.757Z,19.00
2018-09-25T10:18:46.200Z,20.00
2018-09-25T10:21:20.577Z,19.50
2018-09-25T10:23:54.921Z,19.50
2018-09-25T10:26:30.053Z,18.40
2018-09-25T10:29:04.416Z,18.10
2018-09-25T10:31:38.676Z,18.70
2018-09-25T10:34:13.104Z,17.90
2018-09-25T10:36:47.587Z,18.90
2018-09-25T10:39:21.977Z,18.20
2018-09-25T10:41:56.369Z,19.00
2018-09-25T10:44:30.576Z,17.20
2018-09-25T10:47:05.464Z,17.30
2018-09-25T10:49:39.983Z,19.20
2018-09-25T10:52:14.365Z,19.10
2018-09-25T10:54:48.848Z,18.80
2018-09-25T10:57:23.709Z,17.60
2018-09-25T10:59:58.312Z,18.40
2018-09-25T11:02:32.642Z,18.60
2018-09-25T11:05:07.128Z,19.00
2018-09-25T11:07:41.497Z,19.70
2018-09-25T11:10:15.861Z,19.10
2018-09-25T11:12:50.124Z,18.00
2018-09-25T11:15:24.653Z,15.30
2018-09-25T11:17:58.970Z,16.10
2018-09-25T11:20:33.700Z,16.30
2018-09-25T11:23:08.175Z,18.10
2018-09-25T11:25:43.078Z,18.10
2018-09-25T11:28:17.784Z,19.50
2018-09-25T11:30:52.401Z,19.90
2018-09-25T11:33:26.798Z,19.70
2018-09-25T11:36:01.405Z,19.90
2018-09-25T11:38:35.880Z,19.60
2018-09-25T11:41:11.253Z,18.40
2018-09-25T11:43:45.700Z,18.80
2018-09-25T11:46:20.041Z,18.60
2018-09-25T11:48:54.926Z,18.70
2018-09-25T11:51:29.289Z,18.00
2018-09-25T11:54:03.821Z,18.70
2018-09-25T11:56:38.070Z,19.20
2018-09-25T11:59:12.969Z,19.90
2018-09-25T12:01:47.435Z,20.70
2018-09-25T12:04:22.003Z,18.40
2018-09-25T12:06:56.452Z,18.60
2018-09-25T12:09:31.008Z,18.90
2018-09-25T12:12:05.282Z,19.30
2018-09-25T12:14:39.551Z,17.50
2018-09-25T12:17:13.961Z,16.10
2018-09-25T12:19:48.449Z,15.40
2018-09-25T12:22:22.676Z,15.60
2018-09-25T12:24:57.125Z,17.20
2018-09-25T12:27:31.468Z,18.10
2018-09-25T12:30:05.876Z,17.70
2018-09-25T12:32:40.352Z,18.80
2018-09-25T12:35:14.704Z,18.70
2018-09-25T12:37:48.993Z,17.50
2018-09-25T12:40:23.385Z,17.80
2018-09-25T12:42:57.884Z,18.80
2018-09-25T12:45:32.553Z,19.40
2018-09-25T12:48:06.880Z,19.10
2018-09-25T12:50:41.340Z,18.90
2018-09-25T12:53:15.872Z,19.00
2018-09-25T12:55:50.475Z,19.20
2018-09-25T12:58:24.864Z,19.60
2018-09-25T13:00:59.202Z,19.30
2018-09-25T13:03:33.556Z,18.20
2018-09-25T13:06:08.404Z,17.80
2018-09-25T13:08:42.753Z,17.70
2018-09-25T13:11:17.524Z,16.70
2018-09-25T13:13:52.440Z,16.50
2018-09-25T13:16:27.192Z,15.90
2018-09-25T13:19:01.600Z,15.60
2018-09-25T13:21:36.261Z,16.90
2018-09-25T13:24:10.569Z,18.50
2018-09-25T13:26:44.900Z,19.00
2018-09-25T13:29:19.262Z,19.10
2018-09-25T13:31:53.612Z,18.30
2018-09-25T13:34:28.148Z,18.60
2018-09-25T13:37:02.633Z,16.90
2018-09-25T13:39:36.988Z,17.60
2018-09-25T13:42:11.450Z,17.50
2018-09-25T13:44:45.779Z,18.30
2018-09-25T13:47:20.372Z,18.30
2018-09-25T13:49:54.736Z,17.90
2018-09-25T13:52:29.292Z,18.40
2018-09-25T13:55:03.584Z,17.40
2018-09-25T13:57:38.088Z,16.40
2018-09-25T14:00:12.621Z,16.90
2018-09-25T14:02:46.963Z,16.90
2018-09-25T14:05:21.280Z,17.00
2018-09-25T14:07:55.608Z,16.20
2018-09-25T14:10:29.932Z,16.30
2018-09-25T14:13:04.260Z,16.70
2018-09-25T14:15:38.672Z,15.90
2018-09-25T14:18:12.968Z,15.90
2018-09-25T14:20:47.467Z,15.50
2018-09-25T14:23:21.756Z,15.60
2018-09-25T14:25:56.105Z,15.80
2018-09-25T14:28:30.464Z,15.60
2018-09-25T14:31:04.777Z,14.90
2018-09-25T14:33:38.981Z,15.10
2018-09-25T14:36:13.295Z,15.00
2018-09-25T14:38:47.616Z,14.70
2018-09-25T14:41:21.981Z,14.40
2018-09-25T14:43:56.528Z,14.40
2018-09-25T14:46:31.071Z,14.60
2018-09-25T14:49:05.433Z,14.40
2018-09-25T14:51:40.193Z,14.40
2018-09-25T14:54:14.673Z,14.40
2018-09-25T14:56:49.121Z,14.50
2018-09-25T14:59:23.592Z,14.50
2018-09-25T15:01:58.441Z,14.70
2018-09-25T15:04:32.776Z,14.50
2018-09-25T15:07:07.045Z,14.30
2018-09-25T15:09:41.480Z,14.40
2018-09-25T15:12:15.747Z,14.40
2018-09-25T15:14:50.076Z,14.40
2018-09-25T15:17:24.428Z,14.50
2018-09-25T15:19:58.793Z,14.40
2018-09-25T15:22:33.206Z,14.40
2018-09-25T15:25:07.508Z,14.20
2018-09-25T15:27:41.952Z,14.30
2018-09-25T15:30:16.451Z,14.00
2018-09-25T15:32:50.725Z,14.10
2018-09-25T15:35:25.339Z,14.10
2018-09-25T15:37:59.564Z,14.20
2018-09-25T15:40:33.969Z,14.10
2018-09-25T15:43:08.212Z,14.10
2018-09-25T15:45:43.140Z,14.10
2018-09-25T15:48:17.500Z,14.20
2018-09-25T15:50:51.892Z,14.20
2018-09-25T15:53:26.443Z,14.20
2018-09-25T15:56:00.812Z,14.00
2018-09-25T15:58:35.100Z,14.00
2018-09-25T16:01:09.493Z,13.90
2018-09-25T16:03:43.925Z,14.00
2018-09-25T16:06:18.184Z,14.10
2018-09-25T16:08:52.528Z,13.90
2018-09-25T16:11:27.073Z,14.10
2018-09-25T16:14:01.332Z,14.00
2018-09-25T16:16:35.688Z,14.20
2018-09-25T16:19:09.968Z,14.00
2018-09-25T16:21:44.619Z,13.80
2018-09-25T16:24:19.254Z,13.70
2018-09-25T16:26:54.433Z,13.70
2018-09-25T16:29:28.952Z,13.70
2018-09-25T16:32:03.309Z,13.70
2018-09-25T16:34:37.589Z,13.80
2018-09-25T16:37:12.212Z,13.70
2018-09-25T16:39:46.515Z,13.60
2018-09-25T16:42:20.844Z,13.40
2018-09-25T16:44:55.143Z,13.30
2018-09-25T16:47:29.934Z,13.30
2018-09-25T16:50:04.138Z,13.20
2018-09-25T16:52:38.604Z,13.20
2018-09-25T16:55:13.220Z,13.30
2018-09-25T16:57:47.557Z,13.20
2018-09-25T17:00:21.928Z,13.00
2018-09-25T17:02:56.464Z,13.10
2018-09-25T17:05:30.847Z,13.10
2018-09-25T17:08:05.221Z,12.80
2018-09-25T17:10:39.581Z,12.80
2018-09-25T17:13:14.072Z,12.70
2018-09-25T17:15:48.348Z,12.50
2018-09-25T17:18:22.693Z,12.30
2018-09-25T17:20:57.265Z,12.20
2018-09-25T17:23:31.640Z,11.90
2018-09-25T17:26:06.020Z,11.80
2018-09-25T17:28:40.396Z,11.60
2018-09-25T17:31:14.868Z,11.50
2018-09-25T17:33:49.140Z,11.40
2018-09-25T17:36:23.508Z,11.30
2018-09-25T17:38:57.984Z,11.10
2018-09-25T17:41:32.268Z,11.00
2018-09-25T17:44:07.717Z,10.80
2018-09-25T17:46:42.067Z,10.70
2018-09-25T17:49:16.462Z,10.60
2018-09-25T17:51:51.021Z,10.50
2018-09-25T17:54:25.358Z,10.40
2018-09-25T17:56:59.712Z,10.30
2018-09-25T17:59:34.133Z,10.20
2018-09-25T18:02:08.530Z,10.10
2018-09-25T18:04:43.153Z,10.00
2018-09-25T18:07:17.473Z,9.90
2018-09-25T18:09:51.844Z,9.90
2018-09-25T18:12:26.164Z,9.90
2018-09-25T18:15:00.541Z,9.70
2018-09-25T18:17:34.900Z,9.70
2018-09-25T18:20:09.336Z,9.60
2018-09-25T18:22:43.605Z,9.60
2018-09-25T18:25:17.949Z,9.50
2018-09-25T18:27:52.398Z,9.40
2018-09-25T18:30:26.864Z,9.30
2018-09-25T18:33:01.310Z,9.20
2018-09-25T18:35:35.616Z,9.00
2018-09-25T18:38:09.925Z,8.90
2018-09-25T18:40:44.340Z,8.90
2018-09-25T18:43:18.690Z,8.80
2018-09-25T18:45:53.156Z,8.80
2018-09-25T18:48:27.580Z,8.80
2018-09-25T18:51:01.989Z,8.80
2018-09-25T18:53:36.943Z,8.70
2018-09-25T18:56:11.224Z,8.70
2018-09-25T18:58:45.620Z,8.60
2018-09-25T19:01:19.920Z,8.60
2018-09-25T19:03:54.405Z,8.60
2018-09-25T19:06:28.684Z,8.60
2018-09-25T19:09:03.464Z,8.60
2018-09-25T19:11:37.813Z,8.60
2018-09-25T19:14:12.368Z,8.50
2018-09-25T19:16:46.664Z,8.50
2018-09-25T19:19:21.076Z,8.40
2018-09-25T19:21:55.595Z,8.30
2018-09-25T19:24:29.820Z,8.10
2018-09-25T19:27:04.132Z,8.10
2018-09-25T19:29:38.516Z,8.10
2018-09-25T19:32:12.870Z,8.10
2018-09-25T19:34:47.297Z,8.10
2018-09-25T19:37:21.600Z,8.00
2018-09-25T19:39:57.816Z,8.00
2018-09-25T19:42:32.378Z,8.00
2018-09-25T19:45:07.190Z,7.90
2018-09-25T19:47:41.436Z,7.80
2018-09-25T19:50:16.065Z,7.70
2018-09-25T19:52:50.453Z,7.60
2018-09-25T19:55:24.880Z,7.60
2018-09-25T19:57:59.147Z,7.50
2018-09-25T20:00:33.824Z,7.50
2018-09-25T20:03:08.141Z,7.50
2018-09-25T20:05:42.645Z,7.50
2018-09-25T20:08:17.076Z,7.50
2018-09-25T20:10:51.576Z,7.40
2018-09-25T20:13:25.929Z,7.30
2018-09-25T20:16:00.667Z,7.20
2018-09-25T20:18:35.113Z,7.20
2018-09-25T20:21:11.732Z,7.10
2018-09-25T20:23:46.053Z,7.00
2018-09-25T20:26:22.045Z,7.00
2018-09-25T20:28:56.376Z,7.00
2018-09-25T20:31:31.298Z,7.00
2018-09-25T20:34:05.772Z,7.00
2018-09-25T20:36:40.192Z,7.00
2018-09-25T20:39:14.524Z,7.00
2018-09-25T20:41:49.296Z,7.00
2018-09-25T20:44:23.601Z,6.90
2018-09-25T20:46:58.044Z,6.90
2018-09-25T20:49:32.623Z,6.80
2018-09-25T20:52:06.964Z,6.70
2018-09-25T20:54:41.256Z,6.60
2018-09-25T20:57:16.176Z,6.60
2018-09-25T20:59:50.428Z,6.50
2018-09-25T21:02:24.948Z,6.50
2018-09-25T21:04:59.231Z,6.40
2018-09-25T21:07:33.664Z,6.40
2018-09-25T21:10:08.008Z,6.40
2018-09-25T21:12:42.244Z,6.40
2018-09-25T21:15:16.557Z,6.30
2018-09-25T21:17:53.316Z,6.30
2018-09-25T21:20:29.532Z,6.30
2018-09-25T21:23:03.977Z,6.20
2018-09-25T21:25:38.292Z,6.20
2018-09-25T21:28:13.548Z,6.10
2018-09-25T21:30:47.873Z,6.10
2018-09-25T21:33:22.221Z,6.10
2018-09-25T21:35:56.483Z,6.00
2018-09-25T21:38:32.224Z,6.00
2018-09-25T21:41:06.633Z,6.00
2018-09-25T21:43:41.409Z,5.90
2018-09-25T21:46:15.852Z,5.80
2018-09-25T21:48:51.182Z,5.90
2018-09-25T21:51:25.751Z,5.80
2018-09-25T21:54:01.204Z,5.80
2018-09-25T21:56:35.566Z,5.80
2018-09-25T21:59:10.764Z,5.80
2018-09-25T22:01:45.116Z,5.70
2018-09-25T22:04:19.944Z,5.50
2018-09-25T22:06:54.252Z,5.50
2018-09-25T22:09:28.951Z,5.50
2018-09-25T22:12:03.260Z,5.60
2018-09-25T22:14:37.600Z,5.60
2018-09-25T22:17:12.051Z,5.60
2018-09-25T22:19:46.420Z,5.60
2018-09-25T22:22:21.699Z,5.50
2018-09-25T22:24:56.195Z,5.50
2018-09-25T22:27:30.440Z,5.30
2018-09-25T22:30:04.948Z,5.30
2018-09-25T22:32:39.272Z,5.20
2018-09-25T22:35:24.627Z,5.20
2018-09-25T22:37:58.978Z,5.10
2018-09-25T22:40:33.570Z,5.20
2018-09-25T22:43:07.824Z,5.10
2018-09-25T22:45:42.204Z,5.00
2018-09-25T22:48:16.600Z,5.00
2018-09-25T22:50:51.391Z,5.00
2018-09-25T22:53:25.811Z,5.00
2018-09-25T22:56:00.343Z,5.00
2018-09-25T22:58:34.651Z,5.00
2018-09-25T23:01:09.956Z,4.90
2018-09-25T23:03:44.299Z,4.90
2018-09-25T23:06:18.636Z,4.80
2018-09-25T23:08:53.048Z,4.70
2018-09-25T23:11:27.533Z,4.70
2018-09-25T23:14:01.818Z,4.70
2018-09-25T23:16:36.896Z,4.70
2018-09-25T23:19:11.468Z,4.70
2018-09-25T23:21:46.168Z,4.70
2018-09-25T23:24:20.704Z,4.60
2018-09-25T23:26:55.488Z,4.60
2018-09-25T23:29:29.833Z,4.60
2018-09-25T23:32:04.100Z,4.60
2018-09-25T23:34:38.577Z,4.50
2018-09-25T23:37:13.634Z,4.50
2018-09-25T23:39:54.759Z,4.50
2018-09-25T23:42:30.100Z,4.50
2018-09-25T23:45:06.256Z,4.40
2018-09-25T23:47:41.908Z,4.50
2018-09-25T23:50:16.215Z,4.40
2018-09-25T23:54:57.760Z,4.50
2018-09-25T23:57:35.049Z,4.40
